Brentwood, NH

10:05 AM EDT on July 24, 2017 (GMT -0400)
foleychannel | | Change Station

Elev 127 ft 43.00 °N, 71.06 °W | Updated 10 seconds ago

Rain
Rain
61.6 °F
Feels Like 61.6 °F
N
0.0
Wind Variable Wind from NW
Gusts 0.0 mph

Today
High -- | Low -- °F
--% Chance of Precip.
Yesterday
High -- | Low -- °F
Precip. -- in
Pressure 29.98 in
Visibility 10.0 miles
Clouds Few 2600 ft
Mostly Cloudy 9500 ft
Overcast 12000 ft
Dew Point Not available.
Humidity Not available.
Rainfall 0.07 in
Snow Depth Not available.
5:27 AM 8:13 PM
New Moon, 2% visible
METAR KPSM 241358Z COR 09006KT 10SM -RA FEW026 BKN095 OVC120 17/14 A2997 RMK AO2A SLP151 P0002 T01720137 COR 1400
Pressure 29.98 in
Visibility 10.0 miles
Clouds Few 2600 ft
Mostly Cloudy 9500 ft
Overcast 12000 ft
Dew Point Not available.
Humidity Not available.
Rainfall 0.07 in
Snow Depth Not available.
5:27 AM 8:13 PM
New Moon, 2% visible
METAR KPSM 241358Z COR 09006KT 10SM -RA FEW026 BKN095 OVC120 17/14 A2997 RMK AO2A SLP151 P0002 T01720137 COR 1400

Get Severe Weather Alerts

Thanks for signing up!

Be on the lookout for a verification email in your inbox.

You'll start receiving the daily forecast at 6 AM.

×

10-Day Weather Forecast

Almanac

Astronomy

Jul. 24, 2017 Rise Set
Actual Time
Civil Twilight
Nautical Twilight
Astronomical Twilight
Moon
Length of Visible Light
Length of Day
Tomorrow will be .
, % of the Moon is Illuminated

Today's Extremes

State Highs State Lows

Community

WunderPhotos

Category 6

Welcome to Category 6. This is the collective home for Weather Underground's featured writeups by Dr. Jeff Masters (right), Bob Henson (left), Chris Burt, and other regular contributors.

Nearby

Air Quality

  Air Quality AQ Index Pollutant
Not available.

Snow Depth

Station Depth Elevation

Earthquake Activity

City Distance Mag. Time & Date
Minimum magnitude displayed is 2.5.

Coastal Water Temperatures

Place Temperature

Stations

Nearby Weather Stations

Station Location Temp. Windchill Dew Point Humidity Wind Precip. Elev Updated Type
                   

Watches & Warnings

There are currently no watches in effect.